Main page
METAR-TAF:

METAR-TAF

Airports :

Montpellier–Méditerranée Airport

Montpellier, France

latitude: 43-35N, longitude: 003-58E, elevation: 5 m

Current weather observation

The report was made 33 minutes ago, at 13:00 UTC
Wind 6 kt from the East
Temperature 18°C
Humidity 77%
Pressure 1023 hPa
Visibility 10 km or more

METAR: LFMT 151300Z AUTO 09006KT 9999 BKN021/// BKN042/// BKN058/// ///TCU 18/14 Q1023 BECMG BKN025

Time: 14:33 (13:33 UTC)

Forecast

The report was made 5 hours and 33 minutes ago, at 08:00 UTC
Forecast valid from 15 at 09 UTC to 16 at 09 UTC
Wind 8 kt from the Northeast
Visibility 10 km or more
Broken clouds at a height of 1600 ft
Broken clouds at a height of 9000 ft
Becoming
from 15 at 12 UTC to 15 at 14 UTC
Broken clouds at a height of 2500 ft

TAF: LFMT 150800Z 1509/1609 04008KT 9999 BKN016 BKN090 BECMG 1512/1514 BKN025

Weather observations and forecasts of more than 4000 airports (METAR and TAF reports).

The available stations are represented by yellow and red dots on the map.

Hover mouse over dot to see the name of the station.

Then click to see weather observations and forecasts.

To change the map : click on the green buttons with a black cross to zoom in, on the green button with a dash to zoom out, or on the green arrows for adjacent maps.


METAR-TAF: